地図

経路データ

SID SEASON NUMBER BASIN SUBBASIN NAME ISO_TIME NATURE LAT LON WMO_WIND WMO_PRES WMO_AGENCY TRACK_TYPE DIST2LAND LANDFALL IFLAG USA_AGENCY USA_ATCF_ID USA_LAT USA_LON USA_RECORD USA_STATUS USA_WIND USA_PRES USA_SSHS USA_R34_NE USA_R34_SE USA_R34_SW USA_R34_NW USA_R50_NE USA_R50_SE USA_R50_SW USA_R50_NW USA_R64_NE USA_R64_SE USA_R64_SW USA_R64_NW USA_POCI USA_ROCI USA_RMW USA_EYE TOKYO_LAT TOKYO_LON TOKYO_GRADE TOKYO_WIND TOKYO_PRES TOKYO_R50_DIR TOKYO_R50_LONG TOKYO_R50_SHORT TOKYO_R30_DIR TOKYO_R30_LONG TOKYO_R30_SHORT TOKYO_LAND CMA_LAT CMA_LON CMA_CAT CMA_WIND CMA_PRES HKO_LAT HKO_LON HKO_CAT HKO_WIND HKO_PRES NEWDELHI_LAT NEWDELHI_LON NEWDELHI_GRADE NEWDELHI_WIND NEWDELHI_PRES NEWDELHI_CI NEWDELHI_DP NEWDELHI_POCI REUNION_LAT REUNION_LON REUNION_TYPE REUNION_WIND REUNION_PRES REUNION_TNUM REUNION_CI REUNION_RMW REUNION_R34_NE REUNION_R34_SE REUNION_R34_SW REUNION_R34_NW REUNION_R50_NE REUNION_R50_SE REUNION_R50_SW REUNION_R50_NW REUNION_R64_NE REUNION_R64_SE REUNION_R64_SW REUNION_R64_NW BOM_LAT BOM_LON BOM_TYPE BOM_WIND BOM_PRES BOM_TNUM BOM_CI BOM_RMW BOM_R34_NE BOM_R34_SE BOM_R34_SW BOM_R34_NW BOM_R50_NE BOM_R50_SE BOM_R50_SW BOM_R50_NW BOM_R64_NE BOM_R64_SE BOM_R64_SW BOM_R64_NW BOM_ROCI BOM_POCI BOM_EYE BOM_POS_METHOD BOM_PRES_METHOD NADI_LAT NADI_LON NADI_CAT NADI_WIND NADI_PRES WELLINGTON_LAT WELLINGTON_LON WELLINGTON_WIND WELLINGTON_PRES DS824_LAT DS824_LON DS824_STAGE DS824_WIND DS824_PRES TD9636_LAT TD9636_LON TD9636_STAGE TD9636_WIND TD9636_PRES TD9635_LAT TD9635_LON TD9635_WIND TD9635_PRES TD9635_ROCI NEUMANN_LAT NEUMANN_LON NEUMANN_CLASS NEUMANN_WIND NEUMANN_PRES MLC_LAT MLC_LON MLC_CLASS MLC_WIND MLC_PRES USA_GUST BOM_GUST BOM_GUST_PER REUNION_GUST REUNION_GUST_PER USA_SEAHGT USA_SEARAD_NE USA_SEARAD_SE USA_SEARAD_SW USA_SEARAD_NW STORM_SPEED STORM_DIR
1963318S10170 1964 109 SP MM NOT_NAMED 1963-11-14 00:00:00 TS -10.0000 170.000 main 642 642 O________OO_O_ jtwc_sh SH011964 -10.0000 170.000 -1 -10.0000 170.000 TC 65 -10.0000 170.000 4 -10.0000 170.000 TC 25 9 88
1963318S10170 1964 109 SP MM NOT_NAMED 1963-11-14 03:00:00 TS -9.98457 170.462 main 670 670 P________PP_P_ SH011964 -9.97764 170.465 -1 -9.97764 170.465 TC 65 -10.0053 170.453 4 -9.97764 170.465 TC 27 9 91
1963318S10170 1964 109 SP MM NOT_NAMED 1963-11-14 06:00:00 TS -10.0096 170.896 main 695 695 O________OP_O_ jtwc_sh SH011964 -10.0000 170.900 -1 -10.0000 170.900 TC 65 -10.0383 170.885 4 -10.0000 170.900 TC 30 8 99
1963318S10170 1964 109 SP MM NOT_NAMED 1963-11-14 09:00:00 TS -10.1105 171.279 main 713 710 P________PP_P_ SH011964 -10.1050 171.280 -1 -10.1050 171.280 TC 65 -10.1270 171.275 4 -10.1050 171.280 TC 32 8 113
1963318S10170 1964 109 SP MM NOT_NAMED 1963-11-14 12:00:00 TS -10.3000 171.600 main 717 716 O________OO_O_ jtwc_sh SH011964 -10.3000 171.600 -1 -10.3000 171.600 TC 65 -10.3000 171.600 4 -10.3000 171.600 TC 35 8 128
1963318S10170 1964 109 SP MM NOT_NAMED 1963-11-14 15:00:00 TS -10.5760 171.893 main 716 709 P________PP_P_ SH011964 -10.5775 171.910 -1 -10.5775 171.910 TC 65 -10.5715 171.843 4 -10.5775 171.910 TC 35 8 142
1963318S10170 1964 109 SP MM NOT_NAMED 1963-11-14 18:00:00 TS -10.8999 172.074 main 710 688 O________OP_O_ jtwc_sh SH011964 -10.9000 172.100 -1 -10.9000 172.100 TC 65 -10.8995 171.995 4 -10.9000 172.100 TC 35 7 162
1963318S10170 1964 109 SP MM NOT_NAMED 1963-11-14 21:00:00 TS -11.2332 172.106 main 688 659 P________PP_P_ SH011964 -11.2374 172.125 -1 -11.2374 172.125 TC 65 -11.2278 172.049 4 -11.2299 172.125 TC 35 6 186
1963318S10170 1964 109 SP MM NOT_NAMED 1963-11-15 00:00:00 TS -11.5000 172.000 main 659 635 O________OO_O_ jtwc_sh SH011964 -11.5000 172.000 -1 -11.5000 172.000 TC 65 -11.5000 172.000 4 -11.5000 172.000 TC 35 5 219
1963318S10170 1964 109 SP MM NOT_NAMED 1963-11-15 03:00:00 TS -11.6053 171.798 main 635 609 P________PP_P_ SH011964 -11.5800 171.780 -1 -11.5800 171.780 TC 65 -11.6235 171.851 4 -11.6375 171.780 TC 37 5 252
1963318S10170 1964 109 SP MM NOT_NAMED 1963-11-15 06:00:00 TS -11.6469 171.526 main 609 585 O________OP_O_ jtwc_sh SH011964 -11.6000 171.500 -1 -11.6000 171.500 TC 65 -11.6877 171.605 4 -11.7000 171.500 TC 40 5 258
1963318S10170 1964 109 SP MM NOT_NAMED 1963-11-15 09:00:00 TS -11.7113 171.266 main 585 553 P________PP_P_ SH011964 -11.6850 171.250 -1 -11.6850 171.250 TC 65 -11.7329 171.307 4 -11.7425 171.257 TC 42 5 253
1963318S10170 1964 109 SP MM NOT_NAMED 1963-11-15 12:00:00 TS -11.8000 171.000 main 553 521 O________OO_O_ jtwc_sh SH011964 -11.8000 171.000 -1 -11.8000 171.000 TC 65 -11.8000 171.000 4 -11.8000 171.000 TC 45 6 247
1963318S10170 1964 109 SP MM NOT_NAMED 1963-11-15 15:00:00 TS -11.9350 170.721 main 521 490 P________PP_P_ SH011964 -11.9350 170.750 -1 -11.9350 170.750 TC 65 -11.9423 170.693 4 -11.9275 170.693 TC 45 6 241
1963318S10170 1964 109 SP MM NOT_NAMED 1963-11-15 18:00:00 TS -12.1032 170.449 main 482 451 O________OP_O_ jtwc_sh SH011964 -12.1000 170.500 -1 -12.1000 170.500 TC 65 -12.1127 170.395 4 -12.1000 170.400 TC 45 6 236
1963318S10170 1964 109 SP MM NOT_NAMED 1963-11-15 21:00:00 TS -12.2948 170.175 main 451 420 P________PP_P_ SH011964 -12.2925 170.205 -1 -12.2925 170.205 TC 65 -12.3017 170.150 4 -12.2925 170.140 TC 45 6 228
1963318S10170 1964 109 SP MM NOT_NAMED 1963-11-16 00:00:00 TS -12.5000 170.000 main 420 405 O________OO_O_ jtwc_sh SH011964 -12.5000 170.000 -1 -12.5000 170.000 TC 65 -12.5000 170.000 4 -12.5000 170.000 TC 45 4 201
1963318S10170 1964 109 SP MM NOT_NAMED 1963-11-16 03:00:00 TS -12.6992 170.014 main 405 398 P________PP_P_ SH011964 -12.7000 169.990 -1 -12.7000 169.990 TC 65 -12.6968 170.019 4 -12.7000 170.055 TC 47 4 162
1963318S10170 1964 109 SP MM NOT_NAMED 1963-11-16 06:00:00 TS -12.9000 170.133 main 400 396 O________OP_O_ jtwc_sh SH011964 -12.9000 170.100 -1 -12.9000 170.100 TC 65 -12.9000 170.132 4 -12.9000 170.200 TC 50 5 148
1963318S10170 1964 109 SP MM NOT_NAMED 1963-11-16 09:00:00 TS -13.1046 170.277 main 405 399 P________PP_P_ SH011964 -13.1075 170.257 -1 -13.1075 170.257 TC 65 -13.1031 170.279 4 -13.1000 170.315 TC 52 5 147
1963318S10170 1964 109 SP MM NOT_NAMED 1963-11-16 12:00:00 TS -13.3000 170.400 main 403 393 O________OO_O_ jtwc_sh SH011964 -13.3000 170.400 -1 -13.3000 170.400 TC 65 -13.3000 170.400 4 -13.3000 170.400 TC 55 4 159
1963318S10170 1964 109 SP MM NOT_NAMED 1963-11-16 15:00:00 TS -13.4653 170.425 main 393 388 P________PP_P_ SH011964 -13.4500 170.430 -1 -13.4500 170.430 TC 65 -13.4537 170.419 4 -13.5075 170.423 TC 55 3 179
1963318S10170 1964 109 SP MM NOT_NAMED 1963-11-16 18:00:00 TS -13.6262 170.401 main 388 380 O________OP_O_ jtwc_sh SH011964 -13.6000 170.400 -1 -13.6000 170.400 TC 65 -13.6050 170.402 4 -13.7000 170.400 TC 55 3 192
1963318S10170 1964 109 SP MM NOT_NAMED 1963-11-16 21:00:00 TS -13.7866 170.358 main 380 362 P________PP_P_ SH011964 -13.7700 170.357 -1 -13.7700 170.357 TC 65 -13.7787 170.360 4 -13.8275 170.357 TC 57 4 194
1963318S10170 1964 109 SP MM NOT_NAMED 1963-11-17 00:00:00 TS -14.0000 170.300 main 362 349 O________OO_O_ jtwc_sh SH011964 -14.0000 170.300 -1 -14.0000 170.300 TC 65 -14.0000 170.300 4 -14.0000 170.300 TC 60 5 190
1963318S10170 1964 109 SP MM NOT_NAMED 1963-11-17 03:00:00 TS -14.3237 170.260 main 349 313 P________PP_P_ SH011964 -14.3275 170.257 -1 -14.3275 170.257 TC 65 -14.3199 170.268 4 -14.3200 170.257 TC 60 7 187
1963318S10170 1964 109 SP MM NOT_NAMED 1963-11-17 06:00:00 TS -14.6962 170.204 main 313 286 O________OP_O_ jtwc_sh SH011964 -14.7000 170.200 -1 -14.7000 170.200 TC 65 -14.6848 170.217 4 -14.7000 170.200 TC 60 8 189
1963318S10170 1964 109 SP MM NOT_NAMED 1963-11-17 09:00:00 TS -15.0649 170.136 main 280 256 P________PP_P_ SH011964 -15.0649 170.137 -1 -15.0649 170.137 TC 65 -15.0574 170.133 4 -15.0724 170.137 TC 62 7 196
1963318S10170 1964 109 SP MM NOT_NAMED 1963-11-17 12:00:00 TS -15.4000 170.000 main 256 217 O________OO_O_ jtwc_sh SH011964 -15.4000 170.000 -1 -15.4000 170.000 TC 65 -15.4000 170.000 4 -15.4000 170.000 TC 65 7 214
1963318S10170 1964 109 SP MM NOT_NAMED 1963-11-17 15:00:00 TS -15.6564 169.723 main 213 176 P________PP_P_ SH011964 -15.6726 169.715 -1 -15.6726 169.715 TC 65 -15.6654 169.748 4 -15.6151 169.715 TC 67 7 230
1963318S10170 1964 109 SP MM NOT_NAMED 1963-11-17 18:00:00 TS -15.8739 169.414 main 176 151 O________OP_O_ jtwc_sh SH011964 -15.9000 169.400 -1 -15.9000 169.400 TC 65 -15.8955 169.456 4 -15.8000 169.400 TC 70 7 231
1963318S10170 1964 109 SP MM NOT_NAMED 1963-11-17 21:00:00 TS -16.0919 169.157 main 151 128 P________PP_P_ SH011964 -16.1075 169.148 -1 -16.1075 169.148 TC 65 -16.1028 169.185 4 -16.0500 169.148 TC 70 6 223
1963318S10170 1964 109 SP MM NOT_NAMED 1963-11-18 00:00:00 TS -16.3000 169.000 main 128 127 O________OO_O_ jtwc_sh SH011964 -16.3000 169.000 -1 -16.3000 169.000 TC 65 -16.3000 169.000 4 -16.3000 169.000 TC 70 4 200
1963318S10170 1964 109 SP MM NOT_NAMED 1963-11-18 03:00:00 TS -16.5046 168.998 main 127 127 P________PP_P_ SH011964 -16.5000 169.005 -1 -16.5000 169.005 TC 65 -16.5111 168.977 4 -16.5075 169.005 TC 70 4 169
1963318S10170 1964 109 SP MM NOT_NAMED 1963-11-18 06:00:00 TS -16.7037 169.086 main 138 138 O________OP_O_ jtwc_sh SH011964 -16.7000 169.100 -1 -16.7000 169.100 TC 65 -16.7148 169.044 4 -16.7000 169.100 TC 70 4 156
1963318S10170 1964 109 SP MM NOT_NAMED 1963-11-18 09:00:00 TS -16.9028 169.189 main 152 152 P________PP_P_ SH011964 -16.9000 169.200 -1 -16.9000 169.200 TC 65 -16.9112 169.165 4 -16.9000 169.193 TC 72 4 153
1963318S10170 1964 109 SP MM NOT_NAMED 1963-11-18 12:00:00 TS -17.1000 169.300 main 169 169 O________OO_O_ jtwc_sh SH011964 -17.1000 169.300 -1 -17.1000 169.300 TC 65 -17.1000 169.300 4 -17.1000 169.300 TC 75 4 158
1963318S10170 1964 109 SP MM NOT_NAMED 1963-11-18 15:00:00 TS -17.3052 169.364 main 187 187 P________PP_P_ SH011964 -17.3075 169.343 -1 -17.3075 169.343 TC 65 -17.2983 169.373 4 -17.3075 169.400 TC 75 4 161
1963318S10170 1964 109 SP MM NOT_NAMED 1963-11-18 18:00:00 TS -17.4968 169.439 main 197 197 O________OP_O_ jtwc_sh SH011964 -17.5000 169.400 -1 -17.5000 169.400 TC 65 -17.4873 169.455 4 -17.5000 169.500 TC 75 4 154
1963318S10170 1964 109 SP MM NOT_NAMED 1963-11-18 21:00:00 TS -17.6632 169.550 main 227 227 P________PP_P_ SH011964 -17.6650 169.527 -1 -17.6650 169.527 TC 65 -17.6577 169.560 4 -17.6650 169.585 TC 75 4 140
1963318S10170 1964 109 SP MM NOT_NAMED 1963-11-19 00:00:00 TS -17.8000 169.700 main 242 242 O________OO_O_ jtwc_sh SH011964 -17.8000 169.700 -1 -17.8000 169.700 TC 65 -17.8000 169.700 4 -17.8000 169.700 TC 75 4 128
1963318S10170 1964 109 SP MM NOT_NAMED 1963-11-19 03:00:00 TS -17.9102 169.884 main 266 266 P________PP_P_ SH011964 -17.9150 169.885 -1 -17.9150 169.885 TC 65 -17.8957 169.889 4 -17.9150 169.878 TC 75 4 117
1963318S10170 1964 109 SP MM NOT_NAMED 1963-11-19 06:00:00 TS -17.9913 170.103 main 290 290 O________OP_O_ jtwc_sh SH011964 -18.0000 170.100 -1 -18.0000 170.100 TC 65 -17.9651 170.113 4 -18.0000 170.100 TC 75 5 107
1963318S10170 1964 109 SP MM NOT_NAMED 1963-11-19 09:00:00 TS -18.0442 170.349 main 308 308 P________PP_P_ SH011964 -18.0500 170.350 -1 -18.0500 170.350 TC 65 -18.0269 170.355 4 -18.0500 170.343 TC 77 5 103
1963318S10170 1964 109 SP MM NOT_NAMED 1963-11-19 12:00:00 TS -18.1000 170.600 main 341 341 O________OO_O_ jtwc_sh SH011964 -18.1000 170.600 -1 -18.1000 170.600 TC 65 -18.1000 170.600 4 -18.1000 170.600 TC 80 5 108
1963318S10170 1964 109 SP MM NOT_NAMED 1963-11-19 15:00:00 TS -18.1892 170.807 main 365 365 P________PP_P_ SH011964 -18.1849 170.800 -1 -18.1849 170.800 TC 65 -18.2017 170.769 4 -18.1850 170.858 TC 80 4 118
1963318S10170 1964 109 SP MM NOT_NAMED 1963-11-19 18:00:00 TS -18.3047 171.011 main 389 389 O________OP_O_ jtwc_sh SH011964 -18.3000 171.000 -1 -18.3000 171.000 TC 65 -18.3188 170.946 4 -18.3000 171.100 TC 80 5 124
1963318S10170 1964 109 SP MM NOT_NAMED 1963-11-19 21:00:00 TS -18.4445 171.208 main 413 413 P________PP_P_ SH011964 -18.4423 171.205 -1 -18.4423 171.205 TC 65 -18.4514 171.175 4 -18.4421 171.248 TC 80 6 122
1963318S10170 1964 109 SP MM NOT_NAMED 1963-11-20 00:00:00 TS -18.6000 171.500 main 451 451 O________OO_O_ jtwc_sh SH011964 -18.6000 171.500 -1 -18.6000 171.500 TC 65 -18.6000 171.500 4 -18.6000 171.500 TC 80 8 112
1963318S10170 1964 109 SP MM NOT_NAMED 1963-11-20 03:00:00 TS -18.7422 171.977 main 503 503 P________PP_P_ SH011964 -18.7424 171.940 -1 -18.7424 171.940 TC 65 -18.7410 171.979 4 -18.7428 172.048 TC 80 11 107
1963318S10170 1964 109 SP MM NOT_NAMED 1963-11-20 06:00:00 TS -18.8996 172.563 main 495 446 O________OP_O_ jtwc_sh SH011964 -18.9000 172.500 -1 -18.9000 172.500 TC 65 -18.8985 172.553 4 -18.9000 172.700 TC 80 12 106
1963318S10170 1964 109 SP MM NOT_NAMED 1963-11-20 09:00:00 TS -19.0785 173.180 main 439 386 P________PP_P_ SH011964 -19.0776 173.143 -1 -19.0776 173.143 TC 65 -19.0815 173.176 4 -19.0773 173.258 TC 77 12 109
1963318S10170 1964 109 SP MM NOT_NAMED 1963-11-20 12:00:00 TS -19.3000 173.800 main 386 348 O________OO_O_ jtwc_sh SH011964 -19.3000 173.800 -1 -19.3000 173.800 TC 65 -19.3000 173.800 4 -19.3000 173.800 TC 75 12 114
1963318S10170 1964 109 SP MM NOT_NAMED 1963-11-20 15:00:00 TS -19.5836 174.366 main 344 322 P________PP_P_ SH011964 -19.5847 174.365 -1 -19.5847 174.365 TC 65 -19.5802 174.385 4 -19.5848 174.350 TC 75 12 120
1963318S10170 1964 109 SP MM NOT_NAMED 1963-11-20 18:00:00 TS -19.8981 174.915 main 322 299 O________OP_O_ jtwc_sh SH011964 -19.9000 174.900 -1 -19.9000 174.900 TC 65 -19.8925 174.959 4 -19.9000 174.900 TC 75 12 121
1963318S10170 1964 109 SP MM NOT_NAMED 1963-11-20 21:00:00 TS -20.2134 175.477 main 301 296 P________PP_P_ SH011964 -20.2150 175.465 -1 -20.2150 175.465 TC 65 -20.2085 175.504 4 -20.2150 175.472 TC 72 12 121
1963318S10170 1964 109 SP MM NOT_NAMED 1963-11-21 00:00:00 TS -20.5000 176.000 main 301 296 O________OO_O_ jtwc_sh SH011964 -20.5000 176.000 -1 -20.5000 176.000 TC 65 -20.5000 176.000 4 -20.5000 176.000 TC 70 11 118
1963318S10170 1964 109 SP MM NOT_NAMED 1963-11-21 03:00:00 TS -20.7141 176.466 main 302 302 P________PP_P_ SH011964 -20.7149 176.488 -1 -20.7149 176.488 TC 65 -20.7120 176.459 4 -20.7148 176.430 TC 70 9 116
1963318S10170 1964 109 SP MM NOT_NAMED 1963-11-21 06:00:00 TS -20.8999 176.866 main 309 309 O________OP_O_ jtwc_sh SH011964 -20.9000 176.900 -1 -20.9000 176.900 TC 65 -20.8995 176.864 4 -20.9000 176.800 TC 70 8 118
1963318S10170 1964 109 SP MM NOT_NAMED 1963-11-21 09:00:00 TS -21.0855 177.217 main 321 319 P________PP_P_ SH011964 -21.0849 177.238 -1 -21.0849 177.238 TC 65 -21.0872 177.212 4 -21.0850 177.180 TC 67 7 124
1963318S10170 1964 109 SP MM NOT_NAMED 1963-11-21 12:00:00 TS -21.3000 177.500 main 338 338 O________OO_O_ jtwc_sh SH011964 -21.3000 177.500 -1 -21.3000 177.500 TC 65 -21.3000 177.500 4 -21.3000 177.500 TC 65 7 136
1963318S10170 1964 109 SP MM NOT_NAMED 1963-11-21 15:00:00 TS -21.5844 177.729 main 369 369 P________PP_P_ SH011964 -21.5849 177.723 -1 -21.5849 177.723 TC 65 -21.5830 177.741 4 -21.5849 177.730 TC 65 7 148
1963318S10170 1964 109 SP MM NOT_NAMED 1963-11-21 18:00:00 TS -21.8980 177.906 main 402 402 O________OP_O_ jtwc_sh SH011964 -21.9000 177.900 -1 -21.9000 177.900 TC 65 -21.8920 177.925 4 -21.9000 177.900 TC 65 7 153
1963318S10170 1964 109 SP MM NOT_NAMED 1963-11-21 21:00:00 TS -22.2069 178.067 main 436 436 P________PP_P_ SH011964 -22.2075 178.065 -1 -22.2075 178.065 TC 65 -22.2050 178.072 4 -22.2075 178.065 TC 62 7 156
1963318S10170 1964 109 SP MM NOT_NAMED 1963-11-22 00:00:00 TS -22.5000 178.200 main 469 469 O________OO_O_ jtwc_sh SH011964 -22.5000 178.200 -1 -22.5000 178.200 TC 65 -22.5000 178.200 4 -22.5000 178.200 TC 60 6 159
1963318S10170 1964 109 SP MM NOT_NAMED 1963-11-22 03:00:00 TS -22.7664 178.304 main 503 503 P________PP_P_ SH011964 -22.7650 178.300 -1 -22.7650 178.300 TC 65 -22.7707 178.315 4 -22.7650 178.300 TC 55 5 160
1963318S10170 1964 109 SP MM NOT_NAMED 1963-11-22 06:00:00 TS -23.0043 178.405 main 526 526 O________OP_O_ jtwc_sh SH011964 -23.0000 178.400 -1 -23.0000 178.400 TC 65 -23.0171 178.420 4 -23.0000 178.400 TC 50 5 155
1963318S10170 1964 109 SP MM NOT_NAMED 1963-11-22 09:00:00 TS -23.2225 178.531 main 548 548 P________PP_P_ SH011964 -23.2225 178.528 -1 -23.2225 178.528 TC 65 -23.2300 178.540 4 -23.2150 178.528 TC 45 5 146
1963318S10170 1964 109 SP MM NOT_NAMED 1963-11-22 12:00:00 TS -23.4000 178.700 main 572 572 O________OO_O_ jtwc_sh SH011964 -23.4000 178.700 -1 -23.4000 178.700 TC 65 -23.4000 178.700 4 -23.4000 178.700 TC 40 5 131
1963318S10170 1964 109 SP MM NOT_NAMED 1963-11-22 15:00:00 TS -23.5366 178.925 main 586 586 P________PP_P_ SH011964 -23.5225 178.928 -1 -23.5225 178.928 TC 65 -23.5214 178.918 4 -23.5800 178.927 TC 35 5 116
1963318S10170 1964 109 SP MM NOT_NAMED 1963-11-22 18:00:00 TS -23.6258 179.196 main 601 601 O________OP_O_ jtwc_sh SH011964 -23.6000 179.200 -1 -23.6000 179.200 TC 65 -23.6033 179.185 4 -23.7000 179.200 TC 30 5 105
1963318S10170 1964 109 SP MM NOT_NAMED 1963-11-22 21:00:00 TS -23.6741 179.492 main 618 618 P________PP_P_ SH011964 -23.6551 179.495 -1 -23.6551 179.495 TC 65 -23.6585 179.484 4 -23.7276 179.495 TC 25 6 98
1963318S10170 1964 109 SP MM NOT_NAMED 1963-11-23 00:00:00 TS -23.7000 179.800 main 626 O________OO_O_ jtwc_sh SH011964 -23.7000 179.800 -1 -23.7000 179.800 TC 65 -23.7000 179.800 4 -23.7000 179.800 TC 20 6 95

デジタル台風データ・検索

IBTrACS Databaseについて

本データベースは、米国NOAAが公開する1842年以降の世界の熱帯低気圧のベストトラックデータアーカイブInternational Best Track Archive for Climate Stewardship (IBTrACS)を、ウェブで閲覧しやすい形式に変換したものです。

最終更新日:2021-10-27